Terminal Aerodrome Forecast
Issued by NWS

Home | Current Version | Previous Version | Text Only | Print | Product List | Glossary On
Versions: 1 2 3 4 5 6 7 8 9 10 11 12 13 14 15 16 17 18
000
FTUS44 KBMX 232339
TAFANB
TAF
KANB 232339Z 2400/2424 VRB03KT P6SM VCTS SCT050CB
      TEMPO 2400/2401 5SM -TSRA SCT050CB BKN100
     FM240300 00000KT P6SM SCT250
      TEMPO 2409/2412 2SM BR
     FM241800 18004KT P6SM VCTS SCT050CB=

USA.gov is the U.S. government's official web portal to all federal, state and local government web resources and services.